createdAt,value
2019-01-04T00:04:35.007Z,99830.22
2019-01-04T00:09:32.735Z,99821.94
2019-01-04T00:14:22.532Z,99826.04
2019-01-04T00:19:12.706Z,99826.69
2019-01-04T00:24:03.119Z,99832.20
2019-01-04T00:28:53.174Z,99825.41
2019-01-04T00:33:43.817Z,99828.30
2019-01-04T00:38:34.324Z,99842.56
2019-01-04T00:43:24.424Z,99827.95
2019-01-04T00:48:15.085Z,99830.23
2019-01-04T00:53:05.483Z,99817.79
2019-01-04T00:58:29.319Z,99834.52
2019-01-04T01:04:19.264Z,99820.19
2019-01-04T01:09:51.174Z,99812.34
2019-01-04T01:15:20.045Z,99796.70
2019-01-04T01:21:14.584Z,99780.77
2019-01-04T01:26:59.931Z,99769.77
2019-01-04T01:32:01.241Z,99762.30
2019-01-04T01:37:32.523Z,99745.95
2019-01-04T01:43:03.849Z,99732.25
2019-01-04T01:48:16.139Z,99741.22
2019-01-04T01:53:06.555Z,99732.64
2019-01-04T01:57:56.989Z,99715.06
2019-01-04T02:02:47.303Z,99719.80
2019-01-04T02:07:37.601Z,99716.06
2019-01-04T02:12:27.409Z,99704.70
2019-01-04T02:17:17.953Z,99711.13
2019-01-04T02:22:07.738Z,99706.48
2019-01-04T02:26:57.863Z,99720.86
2019-01-04T02:31:48.124Z,99715.70
2019-01-04T02:36:38.922Z,99714.16
2019-01-04T02:41:28.742Z,99710.80
2019-01-04T02:46:18.526Z,99730.30
2019-01-04T02:51:09.666Z,99722.80
2019-01-04T02:56:00.168Z,99723.56
2019-01-04T03:00:51.477Z,99729.88
2019-01-04T03:05:41.345Z,99742.32
2019-01-04T03:10:35.724Z,99730.86
2019-01-04T03:15:25.784Z,99759.58
2019-01-04T03:20:15.516Z,99756.41
2019-01-04T03:25:06.908Z,99760.39
2019-01-04T03:29:57.680Z,99750.72
2019-01-04T03:34:47.724Z,99775.16
2019-01-04T03:39:39.053Z,99790.47
2019-01-04T03:44:30.147Z,99788.61
2019-01-04T03:49:21.242Z,99817.29
2019-01-04T03:54:11.280Z,99830.52
2019-01-04T03:59:01.556Z,99867.03
2019-01-04T04:03:52.372Z,99886.30
2019-01-04T04:08:42.960Z,99915.88
2019-01-04T04:13:32.820Z,99926.16
2019-01-04T04:18:23.300Z,99953.27
2019-01-04T04:23:13.859Z,99966.91
2019-01-04T04:28:04.420Z,99976.33
2019-01-04T04:32:54.733Z,100003.44
2019-01-04T04:37:44.561Z,100013.12
2019-01-04T04:42:34.856Z,100030.92
2019-01-04T04:47:24.948Z,100056.00
2019-01-04T04:52:32.326Z,100061.50
2019-01-04T04:57:38.658Z,100083.69
2019-01-04T05:02:46.241Z,100091.50
2019-01-04T05:07:53.458Z,100105.92
2019-01-04T05:13:00.645Z,100110.31
2019-01-04T05:18:07.493Z,100119.94
2019-01-04T05:23:14.310Z,100147.84
2019-01-04T05:28:21.263Z,100154.70
2019-01-04T05:33:28.448Z,100180.88
2019-01-04T05:38:35.652Z,100201.55
2019-01-04T05:43:43.169Z,100226.55
2019-01-04T05:48:49.844Z,100251.05
2019-01-04T05:53:56.990Z,100271.17
2019-01-04T05:59:04.451Z,100281.89
2019-01-04T06:04:40.519Z,100290.50
2019-01-04T06:09:53.159Z,100311.72
2019-01-04T06:15:00.618Z,100327.00
2019-01-04T06:19:51.184Z,100350.70
2019-01-04T06:24:41.712Z,100353.64
2019-01-04T06:29:33.327Z,100365.83
2019-01-04T06:34:27.119Z,100380.33
2019-01-04T06:39:18.067Z,100390.72
2019-01-04T06:44:08.423Z,100409.59
2019-01-04T06:49:00.175Z,100431.98
2019-01-04T06:53:50.268Z,100447.23
2019-01-04T06:58:41.314Z,100456.78
2019-01-04T07:03:32.136Z,100477.87
2019-01-04T07:08:23.768Z,100489.86
2019-01-04T07:13:15.080Z,100510.04
2019-01-04T07:18:05.684Z,100517.80
2019-01-04T07:22:56.954Z,100529.81
2019-01-04T07:27:48.262Z,100535.09
2019-01-04T07:32:38.610Z,100540.15
2019-01-04T07:37:29.378Z,100541.45
2019-01-04T07:42:20.485Z,100557.12
2019-01-04T07:47:11.812Z,100569.22
2019-01-04T07:52:02.921Z,100578.03
2019-01-04T07:56:53.974Z,100583.15
2019-01-04T08:01:44.015Z,100600.23
2019-01-04T08:06:35.099Z,100623.66
2019-01-04T08:11:29.552Z,100638.43
2019-01-04T08:16:42.274Z,100643.33
2019-01-04T08:22:11.800Z,100649.04
2019-01-04T08:27:05.426Z,100657.66
2019-01-04T08:31:56.755Z,100666.22
2019-01-04T08:36:46.549Z,100669.17
2019-01-04T08:41:40.472Z,100666.77
2019-01-04T08:46:31.262Z,100674.44
2019-01-04T08:51:21.570Z,100686.22
2019-01-04T08:56:12.718Z,100686.22
2019-01-04T09:01:03.199Z,100681.92
2019-01-04T09:05:53.816Z,100686.83
2019-01-04T09:10:44.453Z,100686.56
2019-01-04T09:15:39.318Z,100684.91
2019-01-04T09:20:39.285Z,100691.31
2019-01-04T09:25:30.686Z,100689.36
2019-01-04T09:30:21.335Z,100682.36
2019-01-04T09:35:13.285Z,100679.94
2019-01-04T09:40:06.755Z,100685.51
2019-01-04T09:45:07.051Z,100677.43
2019-01-04T09:50:16.790Z,100663.42
2019-01-04T09:55:23.922Z,100666.65
2019-01-04T10:00:21.233Z,100657.31
2019-01-04T10:05:22.933Z,100671.23
2019-01-04T10:10:13.547Z,100666.35
2019-01-04T10:15:10.791Z,100658.17
2019-01-04T10:20:07.033Z,100653.28
2019-01-04T10:25:28.002Z,100654.22
2019-01-04T10:30:33.462Z,100646.73
2019-01-04T10:35:28.510Z,100641.90
2019-01-04T10:40:31.948Z,100624.02
2019-01-04T10:45:39.285Z,100630.13
2019-01-04T10:50:49.085Z,100631.42
2019-01-04T10:55:47.318Z,100628.91
2019-01-04T11:00:50.493Z,100645.11
2019-01-04T11:05:41.590Z,100636.73
2019-01-04T11:10:34.752Z,100651.58
2019-01-04T11:15:32.427Z,100674.66
2019-01-04T11:20:41.928Z,100694.60
2019-01-04T11:26:11.684Z,100712.45
2019-01-04T11:31:31.114Z,100729.03
2019-01-04T11:37:12.818Z,100725.03
2019-01-04T11:43:05.451Z,100732.56
2019-01-04T11:48:30.297Z,100751.57
2019-01-04T11:53:23.739Z,100757.18
2019-01-04T11:58:13.808Z,100741.77
2019-01-04T12:03:13.199Z,100760.61
2019-01-04T12:08:16.018Z,100782.30
2019-01-04T12:13:19.740Z,100786.16
2019-01-04T12:18:19.523Z,100787.39
2019-01-04T12:23:11.937Z,100802.59
2019-01-04T12:28:05.523Z,100803.75
2019-01-04T12:32:56.280Z,100819.17
2019-01-04T12:37:49.667Z,100829.27
2019-01-04T12:42:43.507Z,100835.48
2019-01-04T12:47:34.119Z,100847.63
2019-01-04T12:52:24.717Z,100853.87
2019-01-04T12:57:15.042Z,100858.51
2019-01-04T13:02:09.980Z,100848.78
2019-01-04T13:07:00.991Z,100851.86
2019-01-04T13:11:52.110Z,100853.62
2019-01-04T13:16:42.865Z,100858.36
2019-01-04T13:21:34.732Z,100860.66
2019-01-04T13:26:27.607Z,100867.41
2019-01-04T13:31:20.608Z,100874.44
2019-01-04T13:36:12.597Z,100878.72
2019-01-04T13:41:04.163Z,100872.98
2019-01-04T13:45:55.225Z,100879.34
2019-01-04T13:50:45.564Z,100890.81
2019-01-04T13:55:35.822Z,100898.58
2019-01-04T14:00:28.211Z,100901.52
2019-01-04T14:05:20.844Z,100887.64
2019-01-04T14:10:14.201Z,100888.47
2019-01-04T14:15:07.122Z,100906.34
2019-01-04T14:19:57.914Z,100907.00
2019-01-04T14:24:48.704Z,100912.13
2019-01-04T14:29:40.807Z,100912.39
2019-01-04T14:34:31.110Z,100915.73
2019-01-04T14:39:27.259Z,100922.17
2019-01-04T14:44:32.995Z,100921.87
2019-01-04T14:49:23.790Z,100921.87
2019-01-04T14:54:14.807Z,100926.10
2019-01-04T14:59:05.682Z,100926.10
2019-01-04T15:03:59.343Z,100932.88
2019-01-04T15:08:53.630Z,100936.16
2019-01-04T15:13:46.272Z,100950.68
2019-01-04T15:18:39.517Z,100949.19
2019-01-04T15:23:30.247Z,100955.14
2019-01-04T15:28:22.408Z,100971.81
2019-01-04T15:33:14.166Z,100988.61
2019-01-04T15:38:07.196Z,100988.34
2019-01-04T15:43:01.265Z,101002.80
2019-01-04T15:47:51.934Z,101003.63
2019-01-04T15:52:44.935Z,101003.02
2019-01-04T15:57:36.531Z,101001.96
2019-01-04T16:02:29.373Z,101002.16
2019-01-04T16:07:46.719Z,101001.38
2019-01-04T16:13:06.427Z,100999.59
2019-01-04T16:18:03.526Z,100996.63
2019-01-04T16:22:53.815Z,101000.19
2019-01-04T16:27:46.448Z,100996.97
2019-01-04T16:32:37.334Z,100990.24
2019-01-04T16:37:28.103Z,100991.89
2019-01-04T16:42:50.618Z,101004.09
2019-01-04T16:47:45.078Z,101018.23
2019-01-04T16:52:38.027Z,101017.89
2019-01-04T16:57:29.314Z,101035.19
2019-01-04T17:02:20.078Z,101040.73
2019-01-04T17:07:43.757Z,101028.66
2019-01-04T17:13:08.960Z,101024.88
2019-01-04T17:18:40.633Z,101028.97
2019-01-04T17:24:05.907Z,101032.67
2019-01-04T17:30:05.653Z,101026.32
2019-01-04T17:35:33.868Z,101029.03
2019-01-04T17:41:07.800Z,101023.66
2019-01-04T17:46:56.952Z,101019.67
2019-01-04T17:52:32.366Z,101018.80
2019-01-04T17:58:06.211Z,101015.94
2019-01-04T18:03:27.489Z,101019.89
2019-01-04T18:08:49.197Z,101024.48
2019-01-04T18:14:23.598Z,101020.27
2019-01-04T18:19:54.805Z,101038.73
2019-01-04T18:25:30.950Z,101031.07
2019-01-04T18:31:06.483Z,101023.94
2019-01-04T18:36:28.771Z,101025.69
2019-01-04T18:41:56.907Z,101022.33
2019-01-04T18:47:24.538Z,101024.63
2019-01-04T18:52:17.543Z,101015.29
2019-01-04T18:57:11.617Z,101010.04
2019-01-04T19:02:04.221Z,101006.09
2019-01-04T19:06:54.788Z,101004.42
2019-01-04T19:11:45.216Z,101008.84
2019-01-04T19:16:36.987Z,101012.02
2019-01-04T19:21:28.590Z,101009.34
2019-01-04T19:26:19.708Z,101013.69
2019-01-04T19:31:11.577Z,101013.52
2019-01-04T19:36:18.760Z,101014.57
2019-01-04T19:41:24.761Z,101020.97
2019-01-04T19:46:15.754Z,101020.25
2019-01-04T19:51:22.419Z,101028.81
2019-01-04T19:56:33.784Z,101021.58
2019-01-04T20:01:34.750Z,101028.53
2019-01-04T20:07:42.104Z,101029.56
2019-01-04T20:13:27.783Z,101030.89
2019-01-04T20:18:53.548Z,101031.20
2019-01-04T20:24:12.418Z,101032.58
2019-01-04T20:29:21.827Z,101025.83
2019-01-04T20:34:30.831Z,101022.63
2019-01-04T20:39:36.842Z,101024.53
2019-01-04T20:44:44.466Z,101023.91
2019-01-04T20:49:53.468Z,101029.45
2019-01-04T20:55:07.345Z,101028.36
2019-01-04T21:00:19.155Z,101021.98
2019-01-04T21:05:31.474Z,101028.04
2019-01-04T21:11:13.219Z,101025.92
2019-01-04T21:16:28.368Z,101015.19
2019-01-04T21:21:40.450Z,101005.23
2019-01-04T21:27:15.464Z,101001.73
2019-01-04T21:32:30.159Z,101003.96
2019-01-04T21:37:55.311Z,100993.75
2019-01-04T21:43:16.570Z,100989.18
2019-01-04T21:48:35.025Z,100997.00
2019-01-04T21:54:03.571Z,100991.66
2019-01-04T21:59:26.585Z,100986.89
2019-01-04T22:04:41.977Z,100990.09
2019-01-04T22:10:08.365Z,100986.00
2019-01-04T22:15:20.176Z,100977.89
2019-01-04T22:20:29.428Z,100964.45
2019-01-04T22:25:50.195Z,100964.97
2019-01-04T22:30:56.886Z,100961.91
2019-01-04T22:36:06.377Z,100964.86
2019-01-04T22:41:14.107Z,100954.91
2019-01-04T22:46:37.459Z,100955.58
2019-01-04T22:51:45.431Z,100937.66
2019-01-04T22:57:06.207Z,100948.48
2019-01-04T23:02:13.915Z,100951.73
2019-01-04T23:07:29.311Z,100934.16
2019-01-04T23:12:43.931Z,100931.09
2019-01-04T23:17:52.920Z,100935.03
2019-01-04T23:23:09.357Z,100929.83
2019-01-04T23:28:50.999Z,100923.44
2019-01-04T23:34:09.069Z,100915.56
2019-01-04T23:39:29.569Z,100901.03
2019-01-04T23:44:47.338Z,100893.31
2019-01-04T23:49:55.763Z,100893.96
2019-01-04T23:55:10.573Z,100888.88
